Aeroporto :
LOGIN :

Iscrizione | Disclaimer

   EN    FR    IT 

 










Sommario :    VFR   VFR Marginale   IFR   IFR Intensivo   IFR Molto Intensivo
Visibilità : 
Base nubi : 
>= 8 km
>= 3000ft
5 / 8 km
1000 / 3000 ft
1500m / 5 km
500 / 1000 ft
800 / 1500m
200 / 500 ft
< 800m
< 200 ft
Simboli :   Temporali  Nebbia  Neve Forte  Precipitazioni Forti  Vento > 20 kt
SIGMETs :   Varie  Temporali  Ghiacco  Turbolenza  Onda orograficha  Ceneri Vulcaniche






- Altitudine del aeroporto : 636 ft


LPBJ - Beja Air Base

ULTIMO METAR :
  • 291400Z 25012KT 9999 SCT006 SCT011 BKN018 16/15 Q1017

METARs OBSOLETI :
  • 291300Z 23013KT 3000 -RADZ BR OVC006 15/14 Q1018
  • 291200Z 22015KT 3000 1500W -RADZ BR BKN006 OVC014 14/14 Q1019
  • 291134Z 23016KT 4000 -RADZ BR BKN008 OVC014 15/13 Q1019
  • 291100Z 23016KT 9999 SCT013 OVC015 15/12 Q1019

TAF AMD TAF LPBJ
Valido dal 29 a 12 ore il 01 a 12 ore UTC


291140Z 2912/0112 24012KT 9999 FEW008 SCT016
TEMPO 2912/2918 25015G25KT 2500 RADZ BR BKN006 OVC012
BECMG 2917/2919 27005KT FEW025
PROB30 0100/0109 2000 BCFG BKN004
BECMG 0109/0111 24012KT 8000 -RA SCT015 BKN025
TEMPO 0110/0112 23015G25KT 4000 RADZ BR SCT008 BKN012



MetMap, La meteo Aeronautica in un colpo d'occhio ! - Copyright ORBIFLY Dicembre 2007 - Disclaimer

ORBIFLY MET'MAP TEAM :

Programmazione e sviluppo : Alexandra Zaïnal
Concezione : Baudouin d'Aumeries
Aiuto per la programmazione : Marc-Olivier Méhu
Supporto tecnico e logistico : Manuel Goepfert
Aiuto per la traduzione : Arnaldo La Scala

Contatto : metmap@orbifly.com




FONTI E CREDITI :

   NOAA